Terminal Aerodrome Forecast
Issued by NWS

Current Version | Previous Version | Text Only | Print | Product List | Glossary On
Versions: 1 2 3 4 5 6 7 8 9 10 11 12 13 14 15 16 17 18 19
000
FTUS46 KMFR 241741
TAFLMT
TAF
KLMT 241741Z 2418/2518 13005KT P6SM SKC
     FM250500 VRB03KT 4SM -SN BKN025 OVC050
     FM250700 00000KT P6SM SCT030 BKN050=

USA.gov is the U.S. government's official web portal to all federal, state and local government web resources and services.